Paradise, Montana
Current Conditions -  °F | °C
As of 11:53 AM on Saturday 25 Oct 2014 (Local Time) from KMLP Reporting Station
Moderate Fog Moderate Fog  
Wind Chill: 28°   Ceiling: 100
Heat Index: 36°   Visibility: 0mi
Dew Point: 36°   Wind: 13mph
Humidity: 100%   Direction: 170°S
Pressure: 29.79"   Gusts: NA
Location:  47.39°N, 114.8°W
Report Text: KMLP 251753Z AUTO 17011KT M1/4SM FG VV001 02/02 A2979 RMK AO2 SLP049 T00220022 10022 20017 58015
Loading
Personal Weather Stations






























Interactive Weather Map New forecast layout! Learn more

10-Day Weather Forecast

Advertisements
Track Severe Weather on mobile